createdAt,value
2018-08-12T00:00:48.104Z,99.90
2018-08-12T00:03:16.620Z,99.90
2018-08-12T00:05:45.233Z,99.90
2018-08-12T00:08:13.656Z,99.90
2018-08-12T00:10:42.103Z,99.90
2018-08-12T00:13:10.406Z,99.90
2018-08-12T00:15:39.722Z,99.90
2018-08-12T00:18:08.479Z,99.90
2018-08-12T00:20:37.447Z,99.90
2018-08-12T00:23:05.958Z,99.90
2018-08-12T00:25:34.529Z,99.90
2018-08-12T00:28:03.910Z,99.90
2018-08-12T00:30:32.238Z,99.90
2018-08-12T00:33:00.597Z,99.90
2018-08-12T00:35:29.094Z,99.90
2018-08-12T00:37:58.497Z,99.90
2018-08-12T00:40:27.458Z,99.90
2018-08-12T00:42:56.070Z,99.90
2018-08-12T00:45:24.572Z,99.90
2018-08-12T00:47:53.134Z,99.90
2018-08-12T00:50:21.443Z,99.90
2018-08-12T00:52:49.757Z,99.90
2018-08-12T00:55:18.585Z,99.90
2018-08-12T00:57:47.917Z,99.90
2018-08-12T01:00:21.014Z,99.90
2018-08-12T01:03:01.031Z,99.90
2018-08-12T01:05:32.195Z,99.90
2018-08-12T01:08:00.863Z,99.90
2018-08-12T01:10:29.209Z,99.90
2018-08-12T01:12:58.113Z,99.90
2018-08-12T01:15:26.711Z,99.90
2018-08-12T01:17:57.646Z,99.90
2018-08-12T01:20:26.893Z,99.90
2018-08-12T01:22:55.401Z,99.90
2018-08-12T01:25:24.400Z,99.90
2018-08-12T01:27:53.093Z,99.90
2018-08-12T01:30:22.249Z,99.90
2018-08-12T01:32:50.654Z,99.90
2018-08-12T01:35:19.825Z,99.90
2018-08-12T01:37:48.907Z,99.90
2018-08-12T01:40:18.177Z,99.90
2018-08-12T01:42:47.212Z,99.90
2018-08-12T01:45:16.502Z,99.90
2018-08-12T01:47:46.186Z,99.90
2018-08-12T01:50:16.142Z,99.90
2018-08-12T01:52:44.431Z,99.90
2018-08-12T01:55:12.773Z,99.90
2018-08-12T01:57:41.538Z,99.90
2018-08-12T02:00:13.071Z,99.90
2018-08-12T02:02:41.536Z,99.90
2018-08-12T02:05:10.502Z,99.90
2018-08-12T02:07:38.999Z,99.90
2018-08-12T02:10:08.710Z,99.90
2018-08-12T02:12:38.577Z,99.90
2018-08-12T02:15:07.639Z,99.90
2018-08-12T02:17:35.973Z,99.90
2018-08-12T02:20:05.566Z,99.90
2018-08-12T02:22:34.113Z,99.90
2018-08-12T02:25:02.696Z,99.90
2018-08-12T02:27:31.743Z,99.90
2018-08-12T02:30:00.192Z,99.90
2018-08-12T02:32:28.636Z,99.90
2018-08-12T02:34:57.378Z,99.90
2018-08-12T02:37:26.169Z,99.90
2018-08-12T02:39:54.959Z,99.90
2018-08-12T02:42:23.706Z,99.90
2018-08-12T02:44:52.370Z,99.90
2018-08-12T02:47:20.847Z,99.90
2018-08-12T02:49:49.643Z,99.90
2018-08-12T02:52:18.298Z,99.90
2018-08-12T02:54:46.722Z,99.90
2018-08-12T02:57:16.428Z,99.90
2018-08-12T02:59:45.177Z,99.90
2018-08-12T03:02:14.263Z,99.90
2018-08-12T03:04:43.172Z,99.90
2018-08-12T03:07:11.634Z,99.90
2018-08-12T03:09:40.364Z,99.90
2018-08-12T03:12:09.098Z,99.90
2018-08-12T03:14:37.564Z,99.90
2018-08-12T03:17:06.226Z,99.90
2018-08-12T03:19:35.155Z,99.90
2018-08-12T03:22:03.782Z,99.90
2018-08-12T03:24:32.867Z,99.90
2018-08-12T03:27:01.590Z,99.90
2018-08-12T03:29:30.027Z,99.90
2018-08-12T03:31:58.805Z,99.90
2018-08-12T03:34:27.649Z,99.90
2018-08-12T03:36:56.517Z,99.90
2018-08-12T03:39:24.980Z,99.90
2018-08-12T03:41:53.889Z,99.90
2018-08-12T03:44:22.392Z,99.90
2018-08-12T03:46:50.950Z,99.90
2018-08-12T03:49:19.632Z,99.90
2018-08-12T03:51:48.475Z,99.90
2018-08-12T03:54:17.560Z,99.90
2018-08-12T03:56:47.325Z,99.90
2018-08-12T03:59:16.243Z,99.90
2018-08-12T04:01:44.964Z,99.90
2018-08-12T04:04:15.324Z,99.90
2018-08-12T04:06:44.446Z,99.90
2018-08-12T04:09:13.151Z,99.90
2018-08-12T04:11:52.867Z,99.90
2018-08-12T04:14:21.285Z,99.90
2018-08-12T04:17:02.018Z,99.90
2018-08-12T04:19:31.596Z,99.90
2018-08-12T04:22:00.215Z,99.90
2018-08-12T04:24:28.923Z,99.90
2018-08-12T04:26:58.169Z,99.90
2018-08-12T04:29:26.895Z,99.90
2018-08-12T04:31:56.051Z,99.90
2018-08-12T04:34:26.179Z,99.90
2018-08-12T04:36:54.922Z,99.90
2018-08-12T04:39:23.657Z,99.90
2018-08-12T04:41:53.255Z,99.90
2018-08-12T04:44:21.889Z,99.90
2018-08-12T04:46:50.358Z,99.90
2018-08-12T04:49:20.050Z,99.90
2018-08-12T04:51:48.734Z,99.90
2018-08-12T04:54:17.433Z,99.90
2018-08-12T04:56:46.647Z,99.90
2018-08-12T04:59:16.360Z,99.90
2018-08-12T05:01:45.006Z,99.90
2018-08-12T05:04:14.097Z,99.90
2018-08-12T05:06:43.302Z,99.90
2018-08-12T05:09:12.530Z,99.90
2018-08-12T05:11:41.584Z,99.90
2018-08-12T05:14:10.264Z,99.90
2018-08-12T05:16:39.031Z,99.90
2018-08-12T05:19:07.936Z,99.90
2018-08-12T05:21:36.700Z,99.90
2018-08-12T05:24:05.437Z,99.90
2018-08-12T05:26:34.422Z,99.90
2018-08-12T05:29:02.852Z,99.90
2018-08-12T05:31:31.593Z,99.90
2018-08-12T05:34:00.577Z,99.90
2018-08-12T05:36:29.302Z,99.90
2018-08-12T05:38:57.750Z,99.90
2018-08-12T05:41:27.242Z,99.90
2018-08-12T05:43:55.933Z,99.90
2018-08-12T05:46:24.440Z,99.90
2018-08-12T05:48:53.818Z,99.90
2018-08-12T05:51:22.572Z,99.90
2018-08-12T05:53:51.291Z,99.90
2018-08-12T05:56:20.611Z,99.90
2018-08-12T05:58:49.176Z,99.90
2018-08-12T06:01:17.647Z,99.90
2018-08-12T06:03:46.444Z,99.90
2018-08-12T06:06:15.063Z,99.90
2018-08-12T06:08:43.485Z,99.90
2018-08-12T06:11:12.637Z,99.90
2018-08-12T06:13:41.339Z,99.90
2018-08-12T06:16:10.051Z,99.90
2018-08-12T06:18:39.171Z,99.90
2018-08-12T06:21:07.719Z,99.90
2018-08-12T06:23:36.444Z,99.90
2018-08-12T06:26:05.510Z,99.90
2018-08-12T06:28:34.224Z,99.90
2018-08-12T06:31:02.926Z,99.90
2018-08-12T06:33:32.115Z,99.90
2018-08-12T06:36:00.786Z,99.90
2018-08-12T06:38:29.436Z,99.90
2018-08-12T06:40:58.455Z,99.90
2018-08-12T06:43:26.961Z,99.90
2018-08-12T06:45:55.356Z,99.90
2018-08-12T06:48:24.598Z,99.90
2018-08-12T06:50:52.977Z,99.90
2018-08-12T06:53:21.638Z,99.90
2018-08-12T06:55:50.542Z,99.90
2018-08-12T06:58:19.306Z,99.90
2018-08-12T07:00:47.704Z,99.90
2018-08-12T07:03:21.724Z,99.90
2018-08-12T07:05:50.629Z,99.90
2018-08-12T07:08:19.111Z,98.10
2018-08-12T07:10:48.016Z,98.10
2018-08-12T07:13:16.934Z,97.70
2018-08-12T07:15:45.696Z,96.90
2018-08-12T07:18:15.012Z,96.10
2018-08-12T07:20:48.939Z,96.10
2018-08-12T07:23:19.231Z,96.60
2018-08-12T07:25:54.317Z,95.90
2018-08-12T07:28:24.643Z,96.70
2018-08-12T07:30:56.982Z,96.40
2018-08-12T07:33:26.409Z,95.00
2018-08-12T07:35:56.806Z,92.00
2018-08-12T07:38:26.823Z,92.90
2018-08-12T07:40:56.339Z,91.80
2018-08-12T07:43:25.634Z,90.40
2018-08-12T07:45:55.810Z,91.60
2018-08-12T07:48:26.417Z,91.50
2018-08-12T07:50:57.308Z,91.20
2018-08-12T07:53:29.518Z,89.30
2018-08-12T07:55:59.562Z,89.60
2018-08-12T07:58:29.802Z,88.00
2018-08-12T08:00:59.901Z,90.00
2018-08-12T08:03:32.664Z,84.60
2018-08-12T08:06:03.515Z,85.50
2018-08-12T08:08:57.640Z,86.30
2018-08-12T08:11:28.427Z,81.20
2018-08-12T08:14:00.271Z,79.90
2018-08-12T08:16:30.035Z,89.20
2018-08-12T08:19:01.378Z,85.60
2018-08-12T08:21:30.579Z,92.40
2018-08-12T08:23:59.758Z,97.00
2018-08-12T08:26:28.815Z,98.40
2018-08-12T08:28:57.722Z,99.30
2018-08-12T08:31:26.607Z,98.60
2018-08-12T08:33:55.565Z,97.60
2018-08-12T08:36:24.763Z,95.20
2018-08-12T08:38:53.557Z,95.80
2018-08-12T08:41:22.695Z,98.90
2018-08-12T08:43:51.442Z,98.30
2018-08-12T08:46:28.636Z,98.90
2018-08-12T08:48:58.412Z,95.00
2018-08-12T08:51:27.144Z,98.10
2018-08-12T08:53:55.814Z,97.30
2018-08-12T08:56:25.082Z,97.70
2018-08-12T08:58:53.448Z,97.90
2018-08-12T09:01:21.934Z,97.40
2018-08-12T09:03:53.460Z,96.80
2018-08-12T09:06:21.967Z,96.90
2018-08-12T09:08:50.978Z,99.90
2018-08-12T09:11:19.256Z,95.90
2018-08-12T09:13:48.639Z,97.20
2018-08-12T09:16:17.345Z,97.80
2018-08-12T09:18:46.385Z,98.00
2018-08-12T09:21:14.879Z,97.60
2018-08-12T09:23:43.568Z,98.70
2018-08-12T09:26:12.764Z,98.20
2018-08-12T09:28:41.234Z,98.10
2018-08-12T09:31:10.368Z,95.10
2018-08-12T09:33:39.665Z,95.40
2018-08-12T09:36:08.390Z,95.50
2018-08-12T09:38:37.318Z,94.00
2018-08-12T09:41:06.869Z,95.60
2018-08-12T09:43:35.703Z,96.20
2018-08-12T09:46:04.442Z,96.50
2018-08-12T09:48:33.591Z,95.60
2018-08-12T09:51:02.797Z,96.00
2018-08-12T09:53:33.031Z,94.10
2018-08-12T09:56:02.626Z,97.10
2018-08-12T09:58:31.531Z,96.30
2018-08-12T10:01:00.505Z,97.50
2018-08-12T10:03:29.492Z,98.80
2018-08-12T10:05:58.026Z,97.00
2018-08-12T10:08:26.448Z,97.90
2018-08-12T10:10:55.648Z,98.20
2018-08-12T10:13:24.341Z,97.80
2018-08-12T10:16:55.223Z,99.90
2018-08-12T10:19:24.429Z,99.90
2018-08-12T10:21:53.432Z,99.10
2018-08-12T10:24:22.694Z,99.70
2018-08-12T10:26:51.516Z,98.70
2018-08-12T10:29:20.291Z,98.10
2018-08-12T10:31:49.570Z,98.90
2018-08-12T10:34:18.294Z,98.10
2018-08-12T10:36:47.137Z,99.10
2018-08-12T10:39:18.394Z,99.50
2018-08-12T10:41:47.512Z,99.10
2018-08-12T10:44:16.773Z,98.80
2018-08-12T10:46:46.541Z,98.10
2018-08-12T10:49:14.952Z,97.90
2018-08-12T10:51:43.814Z,98.20
2018-08-12T10:54:12.431Z,98.20
2018-08-12T10:56:41.660Z,98.90
2018-08-12T10:59:11.357Z,99.00
2018-08-12T11:01:40.420Z,98.90
2018-08-12T11:04:09.643Z,98.20
2018-08-12T11:06:38.774Z,99.00
2018-08-12T11:09:07.906Z,99.30
2018-08-12T11:11:36.904Z,99.60
2018-08-12T11:14:10.248Z,99.90
2018-08-12T11:16:41.250Z,99.10
2018-08-12T11:19:09.956Z,98.70
2018-08-12T11:21:41.647Z,97.50
2018-08-12T11:24:11.282Z,99.80
2018-08-12T11:26:40.249Z,99.10
2018-08-12T11:29:09.938Z,98.90
2018-08-12T11:31:39.239Z,99.90
2018-08-12T11:34:08.550Z,99.50
2018-08-12T11:36:50.768Z,99.80
2018-08-12T11:39:34.383Z,98.80
2018-08-12T11:42:05.637Z,98.50
2018-08-12T11:44:35.723Z,98.70
2018-08-12T11:47:05.134Z,97.40
2018-08-12T11:49:34.138Z,97.40
2018-08-12T11:52:03.455Z,95.90
2018-08-12T11:54:32.151Z,95.80
2018-08-12T11:57:00.574Z,95.10
2018-08-12T11:59:29.699Z,96.60
2018-08-12T12:02:01.233Z,96.70
2018-08-12T12:04:29.923Z,96.90
2018-08-12T12:06:59.049Z,96.90
2018-08-12T12:09:28.431Z,97.30
2018-08-12T12:11:57.094Z,98.70
2018-08-12T12:14:25.901Z,98.90
2018-08-12T12:16:55.165Z,99.70
2018-08-12T12:19:23.594Z,98.70
2018-08-12T12:22:07.341Z,98.50
2018-08-12T12:26:05.009Z,99.80
2018-08-12T12:28:35.822Z,99.80
2018-08-12T12:34:02.636Z,99.10
2018-08-12T12:39:26.763Z,99.10
2018-08-12T12:45:11.055Z,99.60
2018-08-12T12:47:40.322Z,99.30
2018-08-12T12:50:11.394Z,99.90
2018-08-12T12:52:55.500Z,99.70
2018-08-12T12:55:27.068Z,99.40
2018-08-12T12:57:58.081Z,99.90
2018-08-12T13:00:37.865Z,99.90
2018-08-12T13:06:12.083Z,99.90
2018-08-12T13:14:50.921Z,99.90
2018-08-12T13:17:20.299Z,99.90
2018-08-12T13:19:49.809Z,99.90
2018-08-12T13:22:19.260Z,99.90
2018-08-12T13:41:11.830Z,99.90
2018-08-12T13:46:33.345Z,99.90
2018-08-12T13:51:47.352Z,99.90
2018-08-12T13:54:28.832Z,99.90
2018-08-12T13:56:57.780Z,99.90
2018-08-12T13:59:29.716Z,99.90
2018-08-12T14:02:14.975Z,99.90
2018-08-12T14:04:47.517Z,99.90
2018-08-12T14:10:49.708Z,99.90
2018-08-12T14:13:28.654Z,99.90
2018-08-12T14:18:48.621Z,99.90
2018-08-12T14:21:19.514Z,99.90
2018-08-12T14:23:50.492Z,99.90
2018-08-12T14:26:21.069Z,99.90
2018-08-12T14:28:51.889Z,99.90
2018-08-12T14:31:39.967Z,99.90
2018-08-12T14:34:10.462Z,99.90
2018-08-12T14:36:59.948Z,99.90
2018-08-12T14:42:39.172Z,99.90
2018-08-12T14:48:06.450Z,99.90
2018-08-12T14:50:47.542Z,99.90
2018-08-12T14:53:36.311Z,99.90
2018-08-12T14:56:28.596Z,99.90
2018-08-12T14:59:00.446Z,99.90
2018-08-12T15:01:29.736Z,99.90
2018-08-12T15:04:02.036Z,99.90
2018-08-12T15:06:31.258Z,99.90
2018-08-12T15:09:01.817Z,99.90
2018-08-12T15:11:31.244Z,99.90
2018-08-12T15:14:00.208Z,99.90
2018-08-12T15:16:28.987Z,99.90
2018-08-12T15:18:58.224Z,99.90
2018-08-12T15:21:27.091Z,99.90
2018-08-12T15:23:57.176Z,99.90
2018-08-12T15:26:26.253Z,99.90
2018-08-12T15:28:54.984Z,99.90
2018-08-12T15:31:24.335Z,99.90
2018-08-12T15:33:54.598Z,99.90
2018-08-12T15:36:23.458Z,99.90
2018-08-12T15:38:54.017Z,99.90
2018-08-12T15:41:37.170Z,99.90
2018-08-12T15:44:06.336Z,99.90
2018-08-12T15:46:35.728Z,99.90
2018-08-12T15:49:05.967Z,99.90
2018-08-12T15:51:34.867Z,99.90
2018-08-12T15:54:15.664Z,99.90
2018-08-12T15:56:47.433Z,99.90
2018-08-12T15:59:18.381Z,99.90
2018-08-12T16:01:48.570Z,99.90
2018-08-12T16:04:17.225Z,99.90
2018-08-12T16:06:46.440Z,99.90
2018-08-12T16:09:15.382Z,99.90
2018-08-12T16:11:44.119Z,99.90
2018-08-12T16:14:12.860Z,99.90
2018-08-12T16:16:41.707Z,99.90
2018-08-12T16:19:10.792Z,99.90
2018-08-12T16:21:43.404Z,99.90
2018-08-12T16:24:12.168Z,99.90
2018-08-12T16:26:43.912Z,99.90
2018-08-12T16:29:14.269Z,99.90
2018-08-12T16:32:09.304Z,99.90
2018-08-12T16:34:47.967Z,99.90
2018-08-12T16:37:16.993Z,99.90
2018-08-12T16:39:46.079Z,99.90
2018-08-12T16:42:16.845Z,99.90
2018-08-12T16:44:49.056Z,99.90
2018-08-12T16:47:31.181Z,99.90
2018-08-12T16:52:41.803Z,99.90
2018-08-12T16:55:21.115Z,99.90
2018-08-12T16:58:19.175Z,99.90
2018-08-12T17:04:03.417Z,99.90
2018-08-12T17:06:53.338Z,99.90
2018-08-12T17:09:27.064Z,99.90
2018-08-12T17:11:56.129Z,99.90
2018-08-12T17:17:12.270Z,99.90
2018-08-12T17:20:02.553Z,99.90
2018-08-12T17:22:46.388Z,99.90
2018-08-12T17:25:28.473Z,99.90
2018-08-12T17:28:09.142Z,99.90
2018-08-12T17:30:51.172Z,99.90
2018-08-12T17:34:32.413Z,99.90
2018-08-12T17:37:27.041Z,99.90
2018-08-12T17:39:58.191Z,99.90
2018-08-12T17:42:29.768Z,99.90
2018-08-12T17:44:59.405Z,99.90
2018-08-12T17:47:39.958Z,99.90
2018-08-12T17:50:20.818Z,99.90
2018-08-12T17:52:56.034Z,99.90
2018-08-12T17:55:25.122Z,99.90
2018-08-12T17:57:59.280Z,99.90
2018-08-12T18:00:40.540Z,99.90
2018-08-12T18:03:16.050Z,99.90
2018-08-12T18:05:47.049Z,99.90
2018-08-12T18:08:21.539Z,99.90
2018-08-12T18:10:59.617Z,99.90
2018-08-12T18:13:36.272Z,99.90
2018-08-12T18:16:13.510Z,99.90
2018-08-12T18:18:42.638Z,99.90
2018-08-12T18:21:12.238Z,99.90
2018-08-12T18:23:41.895Z,99.90
2018-08-12T18:26:12.505Z,99.90
2018-08-12T18:28:42.387Z,99.90
2018-08-12T18:31:12.952Z,99.90
2018-08-12T18:33:42.395Z,99.90
2018-08-12T18:36:11.430Z,99.90
2018-08-12T18:38:43.110Z,99.90
2018-08-12T18:41:16.187Z,99.90
2018-08-12T18:43:45.512Z,99.90
2018-08-12T18:46:18.948Z,99.90
2018-08-12T18:48:47.966Z,99.90
2018-08-12T18:51:16.928Z,99.90
2018-08-12T18:53:47.553Z,99.90
2018-08-12T18:56:17.078Z,99.90
2018-08-12T18:58:46.214Z,99.90
2018-08-12T19:01:15.442Z,99.90
2018-08-12T19:03:44.594Z,99.90
2018-08-12T19:06:13.932Z,99.90
2018-08-12T19:09:10.551Z,99.90
2018-08-12T19:11:40.093Z,99.90
2018-08-12T19:14:09.445Z,99.90
2018-08-12T19:16:42.921Z,99.90
2018-08-12T19:25:39.203Z,99.90
2018-08-12T19:31:45.589Z,99.90
2018-08-12T19:34:22.472Z,99.90
2018-08-12T19:36:56.023Z,99.90
2018-08-12T19:43:01.812Z,99.90
2018-08-12T19:45:31.873Z,99.90
2018-08-12T19:48:01.654Z,99.90
2018-08-12T19:50:31.197Z,99.90
2018-08-12T19:53:01.039Z,99.90
2018-08-12T19:59:00.910Z,99.90
2018-08-12T20:01:51.235Z,99.90
2018-08-12T20:04:21.668Z,99.90
2018-08-12T20:06:51.074Z,99.90
2018-08-12T20:09:20.134Z,99.90
2018-08-12T20:12:13.225Z,99.90
2018-08-12T20:14:43.163Z,99.90
2018-08-12T20:20:13.495Z,99.90
2018-08-12T20:22:48.377Z,99.90
2018-08-12T20:28:47.058Z,99.90
2018-08-12T20:31:15.904Z,99.90
2018-08-12T20:33:55.724Z,99.90
2018-08-12T20:36:28.394Z,99.90
2018-08-12T20:38:57.426Z,99.90
2018-08-12T20:41:26.472Z,99.90
2018-08-12T20:43:55.275Z,99.90
2018-08-12T20:46:24.609Z,99.90
2018-08-12T20:48:53.360Z,99.90
2018-08-12T20:51:29.786Z,99.90
2018-08-12T20:53:58.868Z,99.90
2018-08-12T20:56:27.705Z,99.90
2018-08-12T20:58:56.361Z,99.90
2018-08-12T21:01:26.022Z,99.90
2018-08-12T21:03:54.777Z,99.90
2018-08-12T21:06:23.427Z,99.90
2018-08-12T21:08:52.155Z,99.90
2018-08-12T21:11:21.269Z,99.90
2018-08-12T21:13:50.353Z,99.90
2018-08-12T21:16:19.484Z,99.90
2018-08-12T21:18:48.522Z,99.90
2018-08-12T21:21:23.195Z,99.90
2018-08-12T21:24:05.112Z,99.90
2018-08-12T21:26:42.788Z,99.90
2018-08-12T21:29:21.081Z,99.90
2018-08-12T21:31:58.146Z,99.90
2018-08-12T21:34:27.986Z,99.90
2018-08-12T21:36:56.754Z,99.90
2018-08-12T21:39:26.265Z,99.90
2018-08-12T21:41:55.537Z,99.90
2018-08-12T21:44:24.319Z,99.90
2018-08-12T21:46:52.979Z,99.90
2018-08-12T21:49:21.973Z,99.90
2018-08-12T21:51:50.618Z,99.90
2018-08-12T21:54:19.240Z,99.90
2018-08-12T21:56:48.336Z,99.90
2018-08-12T21:59:17.117Z,99.90
2018-08-12T22:02:00.148Z,99.90
2018-08-12T22:04:29.283Z,99.90
2018-08-12T22:06:58.194Z,99.90
2018-08-12T22:09:27.077Z,99.90
2018-08-12T22:12:00.055Z,99.90
2018-08-12T22:14:38.633Z,99.90
2018-08-12T22:17:07.587Z,99.90
2018-08-12T22:19:37.095Z,99.90
2018-08-12T22:22:18.209Z,99.90
2018-08-12T22:24:48.986Z,99.90
2018-08-12T22:27:18.370Z,99.90
2018-08-12T22:29:47.454Z,99.90
2018-08-12T22:32:17.123Z,99.90
2018-08-12T22:34:45.917Z,99.90
2018-08-12T22:37:14.621Z,99.90
2018-08-12T22:39:44.292Z,99.90
2018-08-12T22:42:12.981Z,99.90
2018-08-12T22:44:41.727Z,99.90
2018-08-12T22:47:11.162Z,99.90
2018-08-12T22:49:39.894Z,99.90
2018-08-12T22:52:10.657Z,99.90
2018-08-12T22:54:39.639Z,99.90
2018-08-12T22:57:08.363Z,99.90
2018-08-12T22:59:37.022Z,99.90
2018-08-12T23:02:06.007Z,99.90
2018-08-12T23:04:37.086Z,99.90
2018-08-12T23:07:05.790Z,99.90
2018-08-12T23:09:34.845Z,99.90
2018-08-12T23:12:03.678Z,99.90
2018-08-12T23:14:32.615Z,99.90
2018-08-12T23:17:02.064Z,99.90
2018-08-12T23:19:30.925Z,99.90
2018-08-12T23:22:00.012Z,99.90
2018-08-12T23:24:28.693Z,99.90
2018-08-12T23:26:57.383Z,99.90
2018-08-12T23:29:26.166Z,99.90
2018-08-12T23:31:55.142Z,99.90
2018-08-12T23:34:23.808Z,99.90
2018-08-12T23:36:52.965Z,99.90
2018-08-12T23:39:21.940Z,99.90
2018-08-12T23:41:50.580Z,99.90
2018-08-12T23:44:20.033Z,99.90
2018-08-12T23:46:48.833Z,99.90
2018-08-12T23:49:17.838Z,99.90
2018-08-12T23:51:46.872Z,99.90
2018-08-12T23:54:15.797Z,99.90
2018-08-12T23:56:44.880Z,99.90
2018-08-12T23:59:13.884Z,99.90
